createdAt,value
2023-01-18T00:02:01.356Z,65.23
2023-01-18T00:04:27.965Z,63.17
2023-01-18T00:06:54.357Z,73.33
2023-01-18T00:09:20.726Z,71.27
2023-01-18T00:11:48.703Z,70.37
2023-01-18T00:14:15.020Z,66.20
2023-01-18T00:16:41.422Z,63.40
2023-01-18T00:19:12.990Z,69.97
2023-01-18T00:21:40.491Z,70.80
2023-01-18T00:24:10.850Z,61.00
2023-01-18T00:26:37.901Z,65.23
2023-01-18T00:29:04.818Z,69.83
2023-01-18T00:31:31.672Z,76.77
2023-01-18T00:33:58.462Z,76.27
2023-01-18T00:36:24.775Z,69.03
2023-01-18T00:38:51.867Z,91.50
2023-01-18T00:41:18.828Z,77.07
2023-01-18T00:43:45.135Z,66.20
2023-01-18T00:46:14.473Z,67.50
2023-01-18T00:48:41.975Z,78.00
2023-01-18T00:51:12.408Z,71.63
2023-01-18T00:53:40.224Z,69.77
2023-01-18T00:56:08.809Z,67.70
2023-01-18T00:58:35.197Z,73.00
2023-01-18T01:01:01.574Z,72.20
2023-01-18T01:03:28.072Z,72.53
2023-01-18T01:06:12.859Z,69.50
2023-01-18T01:08:39.265Z,83.80
2023-01-18T01:11:11.798Z,76.90
2023-01-18T01:13:57.091Z,76.90
2023-01-18T01:16:42.323Z,80.33
2023-01-18T01:19:27.627Z,71.70
2023-01-18T01:22:12.281Z,76.17
2023-01-18T01:24:57.012Z,75.43
2023-01-18T01:27:23.328Z,80.30
2023-01-18T01:29:51.533Z,70.07
2023-01-18T01:32:18.022Z,69.07
2023-01-18T01:34:44.403Z,68.70
2023-01-18T01:37:10.755Z,73.10
2023-01-18T01:39:37.074Z,63.80
2023-01-18T01:42:03.520Z,71.30
2023-01-18T01:44:34.244Z,60.80
2023-01-18T01:47:09.430Z,60.13
2023-01-18T01:49:42.048Z,67.33
2023-01-18T01:52:11.294Z,60.80
2023-01-18T01:54:43.550Z,57.50
2023-01-18T01:57:18.622Z,56.90
2023-01-18T01:59:52.580Z,58.80
2023-01-18T02:02:19.228Z,62.83
2023-01-18T02:04:46.342Z,69.43
2023-01-18T02:07:13.056Z,53.43
2023-01-18T02:09:39.842Z,59.13
2023-01-18T02:12:06.498Z,66.67
2023-01-18T02:14:33.097Z,73.43
2023-01-18T02:17:11.265Z,68.73
2023-01-18T02:19:52.697Z,80.50
2023-01-18T02:22:48.305Z,65.50
2023-01-18T02:25:31.206Z,57.60
2023-01-18T02:28:12.831Z,65.33
2023-01-18T02:30:49.401Z,53.53
2023-01-18T02:33:31.868Z,56.20
2023-01-18T02:36:01.486Z,61.67
2023-01-18T02:38:36.604Z,65.70
2023-01-18T02:41:49.293Z,73.43
2023-01-18T02:44:40.637Z,71.70
2023-01-18T02:47:09.195Z,61.63
2023-01-18T02:49:35.560Z,76.53
2023-01-18T02:52:03.108Z,56.23
2023-01-18T02:54:32.283Z,62.60
2023-01-18T02:57:01.962Z,60.50
2023-01-18T02:59:35.164Z,60.17
2023-01-18T03:02:09.275Z,57.63
2023-01-18T03:04:54.137Z,60.90
2023-01-18T03:07:45.652Z,67.43
2023-01-18T03:10:13.425Z,58.97
2023-01-18T03:12:56.588Z,59.07
2023-01-18T03:15:47.533Z,69.20
2023-01-18T03:18:33.400Z,61.27
2023-01-18T03:21:05.356Z,60.50
2023-01-18T03:23:41.070Z,73.40
2023-01-18T03:26:10.878Z,69.30
2023-01-18T03:29:06.367Z,55.80
2023-01-18T03:32:09.765Z,56.73
2023-01-18T03:35:07.968Z,61.70
2023-01-18T03:37:41.526Z,56.77
2023-01-18T03:40:15.583Z,72.93
2023-01-18T03:42:50.829Z,53.87
2023-01-18T03:45:25.992Z,69.80
2023-01-18T03:47:52.874Z,65.47
2023-01-18T03:50:47.909Z,68.57
2023-01-18T03:53:20.998Z,59.60
2023-01-18T03:55:53.433Z,57.50
2023-01-18T03:58:25.490Z,62.37
2023-01-18T04:00:53.163Z,58.53
2023-01-18T04:03:19.586Z,50.13
2023-01-18T04:05:46.080Z,55.93
2023-01-18T04:08:12.449Z,51.33
2023-01-18T04:10:38.786Z,53.73
2023-01-18T04:13:05.149Z,57.87
2023-01-18T04:15:31.678Z,51.50
2023-01-18T04:17:57.993Z,54.33
2023-01-18T04:20:24.348Z,61.10
2023-01-18T04:22:54.940Z,50.93
2023-01-18T04:25:21.723Z,50.77
2023-01-18T04:27:48.057Z,56.07
2023-01-18T04:30:14.614Z,51.27
2023-01-18T04:32:42.693Z,59.23
2023-01-18T04:35:09.861Z,47.03
2023-01-18T04:37:38.070Z,62.63
2023-01-18T04:40:05.634Z,46.70
2023-01-18T04:42:32.006Z,44.67
2023-01-18T04:44:59.845Z,54.93
2023-01-18T04:47:28.948Z,60.17
2023-01-18T04:49:57.314Z,55.17
2023-01-18T04:52:23.776Z,59.97
2023-01-18T04:54:50.130Z,60.63
2023-01-18T04:57:16.458Z,58.40
2023-01-18T04:59:45.772Z,52.53
2023-01-18T05:02:12.679Z,51.63
2023-01-18T05:04:39.054Z,51.67
2023-01-18T05:07:05.401Z,62.50
2023-01-18T05:09:31.747Z,68.13
2023-01-18T05:11:58.059Z,57.53
2023-01-18T05:14:24.504Z,47.17
2023-01-18T05:16:50.838Z,61.17
2023-01-18T05:19:17.205Z,51.60
2023-01-18T05:21:43.510Z,49.20
2023-01-18T05:24:09.833Z,58.07
2023-01-18T05:26:36.350Z,53.30
2023-01-18T05:29:02.736Z,46.13
2023-01-18T05:31:29.162Z,48.60
2023-01-18T05:33:58.578Z,49.60
2023-01-18T05:36:24.944Z,54.03
2023-01-18T05:38:51.287Z,58.60
2023-01-18T05:41:18.306Z,54.33
2023-01-18T05:43:44.754Z,52.17
2023-01-18T05:46:14.776Z,58.47
2023-01-18T05:48:41.096Z,51.20
2023-01-18T05:51:11.442Z,46.47
2023-01-18T05:53:38.084Z,56.63
2023-01-18T05:56:07.276Z,63.50
2023-01-18T05:58:33.645Z,77.83
2023-01-18T06:01:00.102Z,64.83
2023-01-18T06:03:26.619Z,62.97
2023-01-18T06:05:53.107Z,60.93
2023-01-18T06:08:20.402Z,70.40
2023-01-18T06:10:57.854Z,54.50
2023-01-18T06:13:27.878Z,51.97
2023-01-18T06:15:55.295Z,52.20
2023-01-18T06:18:22.075Z,53.63
2023-01-18T06:20:48.437Z,46.07
2023-01-18T06:23:15.285Z,45.40
2023-01-18T06:25:41.600Z,55.93
2023-01-18T06:28:07.947Z,59.93
2023-01-18T06:30:34.338Z,56.27
2023-01-18T06:33:06.065Z,43.07
2023-01-18T06:35:33.919Z,46.90
2023-01-18T06:38:00.365Z,54.97
2023-01-18T06:40:26.858Z,52.97
2023-01-18T06:42:53.199Z,48.33
2023-01-18T06:45:21.932Z,65.53
2023-01-18T06:47:49.273Z,49.20
2023-01-18T06:50:16.069Z,51.50
2023-01-18T06:52:43.858Z,54.90
2023-01-18T06:55:14.828Z,57.00
2023-01-18T06:57:41.381Z,49.17
2023-01-18T07:00:09.408Z,52.50
2023-01-18T07:02:36.631Z,54.37
2023-01-18T07:05:04.429Z,65.17
2023-01-18T07:07:31.009Z,55.57
2023-01-18T07:09:57.378Z,51.47
2023-01-18T07:12:23.765Z,52.13
2023-01-18T07:14:50.152Z,47.20
2023-01-18T07:17:16.525Z,60.17
2023-01-18T07:19:44.114Z,57.60
2023-01-18T07:22:10.443Z,50.90
2023-01-18T07:24:36.764Z,53.83
2023-01-18T07:27:03.239Z,70.13
2023-01-18T07:29:29.573Z,48.83
2023-01-18T07:31:56.124Z,56.07
2023-01-18T07:34:22.478Z,60.70
2023-01-18T07:36:48.890Z,57.43
2023-01-18T07:39:15.377Z,48.70
2023-01-18T07:41:42.026Z,50.67
2023-01-18T07:44:10.200Z,57.10
2023-01-18T07:46:36.535Z,56.97
2023-01-18T07:49:05.641Z,56.00
2023-01-18T07:51:33.304Z,57.47
2023-01-18T07:53:59.672Z,53.03
2023-01-18T07:56:27.075Z,68.00
2023-01-18T07:58:53.584Z,51.23
2023-01-18T08:01:21.988Z,59.20
2023-01-18T08:03:49.973Z,58.67
2023-01-18T08:06:21.000Z,63.60
2023-01-18T08:08:47.452Z,57.30
2023-01-18T08:11:13.854Z,58.73
2023-01-18T08:13:41.248Z,53.03
2023-01-18T08:16:11.013Z,52.33
2023-01-18T08:18:37.493Z,57.90
2023-01-18T08:21:04.519Z,56.57
2023-01-18T08:23:30.910Z,50.87
2023-01-18T08:26:00.916Z,51.33
2023-01-18T08:28:27.321Z,56.73
2023-01-18T08:30:53.772Z,56.67
2023-01-18T08:33:20.122Z,53.00
2023-01-18T08:35:47.907Z,53.00
2023-01-18T08:38:16.170Z,44.90
2023-01-18T08:40:42.861Z,61.07
2023-01-18T08:43:10.742Z,58.13
2023-01-18T08:45:37.228Z,56.70
2023-01-18T08:48:09.296Z,58.63
2023-01-18T08:50:36.074Z,62.57
2023-01-18T08:53:03.941Z,69.10
2023-01-18T08:55:30.661Z,59.63
2023-01-18T08:57:58.164Z,66.83
2023-01-18T09:00:28.301Z,68.33
2023-01-18T09:02:54.926Z,59.13
2023-01-18T09:05:21.781Z,59.23
2023-01-18T09:07:48.283Z,67.33
2023-01-18T09:10:14.823Z,58.33
2023-01-18T09:12:41.142Z,68.50
2023-01-18T09:15:08.461Z,70.80
2023-01-18T09:17:34.930Z,81.57
2023-01-18T09:20:01.284Z,72.83
2023-01-18T09:22:27.625Z,64.17
2023-01-18T09:24:53.987Z,76.17
2023-01-18T09:27:20.313Z,68.03
2023-01-18T09:29:52.174Z,75.90
2023-01-18T09:32:20.130Z,72.63
2023-01-18T09:34:50.667Z,70.63
2023-01-18T09:37:18.944Z,72.83
2023-01-18T09:39:51.700Z,74.53
2023-01-18T09:42:25.221Z,73.77
2023-01-18T09:44:58.575Z,73.33
2023-01-18T09:47:29.022Z,75.67
2023-01-18T09:49:56.606Z,76.23
2023-01-18T09:53:09.557Z,93.07
2023-01-18T09:55:53.899Z,101.03
2023-01-18T09:58:41.426Z,82.00
2023-01-18T10:01:16.125Z,77.93
2023-01-18T10:04:00.101Z,73.67
2023-01-18T10:07:01.808Z,83.80
2023-01-18T10:09:33.616Z,71.70
2023-01-18T10:12:04.510Z,77.17
2023-01-18T10:15:02.055Z,73.33
2023-01-18T10:17:39.035Z,65.37
2023-01-18T10:20:36.640Z,61.30
2023-01-18T10:23:12.434Z,74.27
2023-01-18T10:25:44.557Z,68.80
2023-01-18T10:28:26.372Z,67.07
2023-01-18T10:30:58.087Z,69.90
2023-01-18T10:33:32.548Z,58.83
2023-01-18T10:36:06.196Z,63.33
2023-01-18T10:38:32.808Z,60.67
2023-01-18T10:41:01.414Z,56.07
2023-01-18T10:43:29.991Z,66.93
2023-01-18T10:45:56.461Z,64.20
2023-01-18T10:48:33.821Z,64.57
2023-01-18T10:51:03.060Z,61.47
2023-01-18T10:53:32.826Z,60.17
2023-01-18T10:56:21.509Z,59.50
2023-01-18T10:58:50.949Z,48.07
2023-01-18T11:01:22.366Z,58.67
2023-01-18T11:03:52.557Z,47.70
2023-01-18T11:06:20.593Z,47.57
2023-01-18T11:08:49.198Z,54.33
2023-01-18T11:12:06.015Z,51.40
2023-01-18T11:14:34.884Z,45.33
2023-01-18T11:17:10.830Z,49.73
2023-01-18T11:19:41.635Z,44.23
2023-01-18T11:22:13.397Z,39.30
2023-01-18T11:24:39.948Z,46.97
2023-01-18T11:27:20.191Z,53.53
2023-01-18T11:29:46.764Z,44.23
2023-01-18T11:32:30.988Z,40.80
2023-01-18T11:34:59.792Z,38.93
2023-01-18T11:37:31.294Z,45.17
2023-01-18T11:39:57.933Z,39.30
2023-01-18T11:42:31.428Z,42.83
2023-01-18T11:45:28.876Z,41.50
2023-01-18T11:48:30.123Z,49.27
2023-01-18T11:51:08.281Z,35.83
2023-01-18T11:53:48.710Z,34.47
2023-01-18T11:56:30.853Z,33.27
2023-01-18T11:58:57.689Z,39.30
2023-01-18T12:01:43.410Z,29.80
2023-01-18T12:04:23.014Z,32.57
2023-01-18T12:07:27.610Z,33.73
2023-01-18T12:10:00.205Z,34.07
2023-01-18T12:12:54.498Z,32.37
2023-01-18T12:15:45.423Z,33.17
2023-01-18T12:18:31.624Z,28.10
2023-01-18T12:21:11.860Z,35.23
2023-01-18T12:23:42.151Z,31.53
2023-01-18T12:26:17.094Z,32.60
2023-01-18T12:29:21.831Z,49.17
2023-01-18T12:32:06.759Z,33.17
2023-01-18T12:34:56.193Z,35.10
2023-01-18T12:37:41.281Z,25.30
2023-01-18T12:40:25.893Z,27.60
2023-01-18T12:43:11.013Z,24.47
2023-01-18T12:46:05.780Z,29.63
2023-01-18T12:48:42.728Z,38.73
2023-01-18T12:51:13.729Z,24.97
2023-01-18T12:53:46.323Z,32.80
2023-01-18T12:56:24.509Z,32.10
2023-01-18T12:58:57.556Z,31.20
2023-01-18T13:01:27.078Z,29.67
2023-01-18T13:04:00.186Z,27.67
2023-01-18T13:06:27.197Z,25.63
2023-01-18T13:09:22.554Z,33.27
2023-01-18T13:11:49.801Z,25.97
2023-01-18T13:14:38.338Z,28.77
2023-01-18T13:17:28.695Z,30.33
2023-01-18T13:20:04.899Z,31.83
2023-01-18T13:22:55.618Z,22.93
2023-01-18T13:25:32.235Z,30.43
2023-01-18T13:28:25.949Z,24.13
2023-01-18T13:31:01.743Z,25.70
2023-01-18T13:33:34.686Z,27.23
2023-01-18T13:36:08.592Z,35.47
2023-01-18T13:38:57.134Z,31.93
2023-01-18T13:41:25.478Z,43.63
2023-01-18T13:43:51.816Z,30.07
2023-01-18T13:46:26.070Z,23.93
2023-01-18T13:48:57.433Z,25.23
2023-01-18T13:51:46.960Z,23.53
2023-01-18T13:54:22.904Z,29.43
2023-01-18T13:57:01.465Z,31.30
2023-01-18T13:59:34.112Z,29.37
2023-01-18T14:02:17.742Z,25.87
2023-01-18T14:04:44.859Z,35.00
2023-01-18T14:07:19.741Z,24.60
2023-01-18T14:09:48.728Z,29.03
2023-01-18T14:12:15.470Z,23.70
2023-01-18T14:14:55.895Z,28.93
2023-01-18T14:17:25.029Z,23.70
2023-01-18T14:20:29.081Z,23.10
2023-01-18T14:23:17.409Z,21.67
2023-01-18T14:26:00.282Z,18.30
2023-01-18T14:28:44.852Z,20.70
2023-01-18T14:31:37.499Z,21.67
2023-01-18T14:34:28.674Z,20.57
2023-01-18T14:36:55.812Z,25.87
2023-01-18T14:39:22.945Z,25.73
2023-01-18T14:41:55.149Z,18.93
2023-01-18T14:44:24.013Z,20.20
2023-01-18T14:46:53.171Z,20.87
2023-01-18T14:49:30.889Z,24.47
2023-01-18T14:51:58.863Z,23.43
2023-01-18T14:54:25.859Z,23.03
2023-01-18T14:57:01.581Z,21.63
2023-01-18T14:59:30.668Z,25.30
2023-01-18T15:02:03.470Z,33.07
2023-01-18T15:04:32.783Z,32.00
2023-01-18T15:07:04.718Z,17.63
2023-01-18T15:09:34.265Z,24.07
2023-01-18T15:12:04.221Z,18.57
2023-01-18T15:14:33.433Z,16.97
2023-01-18T15:17:01.699Z,13.13
2023-01-18T15:19:39.960Z,13.20
2023-01-18T15:22:10.747Z,15.43
2023-01-18T15:24:39.460Z,15.70
2023-01-18T15:27:11.427Z,12.77
2023-01-18T15:29:38.816Z,11.10
2023-01-18T15:32:17.521Z,15.13
2023-01-18T15:34:47.298Z,14.30
2023-01-18T15:37:34.540Z,29.10
2023-01-18T15:40:06.728Z,11.70
2023-01-18T15:42:36.738Z,12.17
2023-01-18T15:45:03.741Z,13.57
2023-01-18T15:47:36.677Z,16.37
2023-01-18T15:50:15.541Z,14.93
2023-01-18T15:52:45.367Z,17.73
2023-01-18T15:55:35.757Z,13.03
2023-01-18T15:58:06.826Z,15.20
2023-01-18T16:00:43.209Z,16.63
2023-01-18T16:03:20.414Z,12.80
2023-01-18T16:06:07.101Z,18.37
2023-01-18T16:08:35.606Z,16.63
2023-01-18T16:11:02.026Z,16.97
2023-01-18T16:13:34.397Z,19.70
2023-01-18T16:16:18.420Z,20.80
2023-01-18T16:18:49.247Z,16.33
2023-01-18T16:21:40.268Z,17.83
2023-01-18T16:24:29.686Z,21.03
2023-01-18T16:26:58.204Z,16.67
2023-01-18T16:29:24.709Z,15.60
2023-01-18T16:31:51.100Z,19.17
2023-01-18T16:34:22.081Z,15.37
2023-01-18T16:36:49.271Z,19.53
2023-01-18T16:39:15.729Z,13.57
2023-01-18T16:41:45.462Z,13.07
2023-01-18T16:44:12.192Z,17.53
2023-01-18T16:46:38.529Z,12.03
2023-01-18T16:49:09.478Z,15.70
2023-01-18T16:51:36.000Z,16.17
2023-01-18T16:54:02.389Z,14.07
2023-01-18T16:56:28.702Z,14.20
2023-01-18T16:58:55.041Z,18.07
2023-01-18T17:01:21.493Z,14.27
2023-01-18T17:03:49.609Z,13.10
2023-01-18T17:06:22.359Z,16.20
2023-01-18T17:08:49.233Z,19.50
2023-01-18T17:11:15.701Z,12.83
2023-01-18T17:13:42.281Z,15.37
2023-01-18T17:16:15.035Z,12.30
2023-01-18T17:18:41.367Z,13.33
2023-01-18T17:21:10.147Z,12.63
2023-01-18T17:23:39.661Z,17.37
2023-01-18T17:26:07.577Z,11.37
2023-01-18T17:28:34.032Z,21.10
2023-01-18T17:31:00.708Z,16.00
2023-01-18T17:33:27.116Z,11.67
2023-01-18T17:35:54.552Z,14.07
2023-01-18T17:38:24.925Z,9.50
2023-01-18T17:40:52.325Z,15.17
2023-01-18T17:43:31.983Z,11.73
2023-01-18T17:46:01.881Z,9.27
2023-01-18T17:48:28.944Z,11.03
2023-01-18T17:50:55.346Z,10.17
2023-01-18T17:53:21.676Z,15.77
2023-01-18T17:55:48.080Z,10.13
2023-01-18T17:58:14.540Z,12.47
2023-01-18T18:00:40.886Z,9.63
2023-01-18T18:03:07.853Z,9.60
2023-01-18T18:05:34.389Z,9.07
2023-01-18T18:08:00.768Z,21.13
2023-01-18T18:10:27.148Z,15.17
2023-01-18T18:12:53.510Z,15.47
2023-01-18T18:15:23.335Z,11.10
2023-01-18T18:17:49.699Z,9.50
2023-01-18T18:20:16.761Z,8.70
2023-01-18T18:22:43.290Z,13.90
2023-01-18T18:25:09.816Z,10.90
2023-01-18T18:27:51.489Z,9.97
2023-01-18T18:30:18.425Z,8.67
2023-01-18T18:32:44.861Z,8.37
2023-01-18T18:35:24.347Z,16.67
2023-01-18T18:37:53.585Z,7.63
2023-01-18T18:40:20.276Z,11.93
2023-01-18T18:43:00.597Z,9.90
2023-01-18T18:45:30.180Z,8.00
2023-01-18T18:47:56.497Z,8.47
2023-01-18T18:50:22.896Z,8.23
2023-01-18T18:52:49.314Z,10.07
2023-01-18T18:55:15.847Z,10.97
2023-01-18T18:57:42.183Z,9.00
2023-01-18T19:00:09.172Z,15.13
2023-01-18T19:02:35.605Z,18.47
2023-01-18T19:05:02.401Z,17.40
2023-01-18T19:07:28.840Z,18.73
2023-01-18T19:09:55.407Z,18.50
2023-01-18T19:12:21.764Z,12.73
2023-01-18T19:14:48.786Z,18.80
2023-01-18T19:17:25.121Z,19.73
2023-01-18T19:19:56.182Z,16.17
2023-01-18T19:22:22.613Z,19.43
2023-01-18T19:24:49.116Z,14.57
2023-01-18T19:27:15.471Z,19.37
2023-01-18T19:29:41.843Z,14.47
2023-01-18T19:32:08.171Z,15.17
2023-01-18T19:34:38.167Z,17.93
2023-01-18T19:37:04.844Z,17.33
2023-01-18T19:39:34.324Z,19.40
2023-01-18T19:42:01.682Z,16.13
2023-01-18T19:44:28.119Z,18.90
2023-01-18T19:46:56.501Z,16.13
2023-01-18T19:49:25.831Z,23.10
2023-01-18T19:51:53.194Z,15.53
2023-01-18T19:54:22.976Z,16.27
2023-01-18T19:56:49.457Z,27.20
2023-01-18T19:59:16.104Z,15.50
2023-01-18T20:01:42.884Z,15.80
2023-01-18T20:04:10.866Z,18.53
2023-01-18T20:06:39.349Z,14.33
2023-01-18T20:09:17.776Z,20.13
2023-01-18T20:11:44.874Z,13.13
2023-01-18T20:14:12.992Z,13.30
2023-01-18T20:16:39.431Z,17.57
2023-01-18T20:19:05.794Z,19.53
2023-01-18T20:21:32.192Z,12.53
2023-01-18T20:23:58.714Z,19.17
2023-01-18T20:26:35.992Z,15.37
2023-01-18T20:29:06.460Z,16.37
2023-01-18T20:31:34.427Z,12.87
2023-01-18T20:34:00.853Z,19.10
2023-01-18T20:36:27.805Z,15.60
2023-01-18T20:38:54.157Z,14.27
2023-01-18T20:41:20.757Z,23.47
2023-01-18T20:43:47.302Z,16.20
2023-01-18T20:46:13.813Z,14.37
2023-01-18T20:48:40.253Z,21.63
2023-01-18T20:51:10.017Z,16.43
2023-01-18T20:53:38.023Z,26.03
2023-01-18T20:56:11.829Z,19.00
2023-01-18T20:58:43.344Z,14.83
2023-01-18T21:01:15.619Z,17.80
2023-01-18T21:03:43.116Z,18.07
2023-01-18T21:06:10.477Z,15.43
2023-01-18T21:08:37.332Z,15.77
2023-01-18T21:11:04.569Z,17.27
2023-01-18T21:13:32.502Z,14.33
2023-01-18T21:15:59.660Z,19.97
2023-01-18T21:18:27.207Z,16.57
2023-01-18T21:20:58.895Z,16.37
2023-01-18T21:23:26.899Z,14.40
2023-01-18T21:25:56.121Z,14.47
2023-01-18T21:28:23.195Z,14.47
2023-01-18T21:30:51.425Z,17.30
2023-01-18T21:33:18.391Z,17.90
2023-01-18T21:35:45.132Z,19.47
2023-01-18T21:38:11.847Z,18.67
2023-01-18T21:40:38.369Z,16.70
2023-01-18T21:43:23.230Z,25.43
2023-01-18T21:45:55.242Z,13.73
2023-01-18T21:48:26.272Z,16.90
2023-01-18T21:51:11.324Z,17.43
2023-01-18T21:53:56.358Z,16.30
2023-01-18T21:56:22.876Z,20.17
2023-01-18T21:58:57.462Z,15.27
2023-01-18T22:01:27.253Z,18.80
2023-01-18T22:04:13.523Z,19.37
2023-01-18T22:06:40.144Z,18.67
2023-01-18T22:09:07.788Z,19.83
2023-01-18T22:11:34.222Z,18.40
2023-01-18T22:14:02.630Z,14.77
2023-01-18T22:16:30.739Z,15.37
2023-01-18T22:18:58.187Z,17.60
2023-01-18T22:21:25.336Z,16.33
2023-01-18T22:23:52.725Z,17.33
2023-01-18T22:26:20.812Z,19.17
2023-01-18T22:28:47.637Z,20.47
2023-01-18T22:31:14.393Z,19.67
2023-01-18T22:33:41.333Z,16.40
2023-01-18T22:36:08.522Z,16.60
2023-01-18T22:38:37.179Z,23.83
2023-01-18T22:41:24.359Z,16.17
2023-01-18T22:43:51.457Z,21.43
2023-01-18T22:46:19.872Z,23.17
2023-01-18T22:48:47.161Z,17.63
2023-01-18T22:51:19.358Z,40.10
2023-01-18T22:53:45.812Z,23.87
2023-01-18T22:56:18.859Z,17.03
2023-01-18T22:58:45.358Z,17.47
2023-01-18T23:01:22.281Z,21.90
2023-01-18T23:03:49.632Z,19.17
2023-01-18T23:06:17.008Z,18.73
2023-01-18T23:08:43.443Z,21.53
2023-01-18T23:11:18.438Z,23.10
2023-01-18T23:14:06.998Z,19.77
2023-01-18T23:16:51.761Z,22.57
2023-01-18T23:19:18.339Z,23.83
2023-01-18T23:21:44.852Z,24.07
2023-01-18T23:24:11.260Z,23.43
2023-01-18T23:26:37.616Z,27.03
2023-01-18T23:29:03.976Z,20.77
2023-01-18T23:31:30.449Z,26.17
2023-01-18T23:33:56.827Z,20.57
2023-01-18T23:36:23.588Z,22.53
2023-01-18T23:39:08.594Z,20.67
2023-01-18T23:41:54.010Z,20.67
2023-01-18T23:44:38.842Z,20.50
2023-01-18T23:47:23.478Z,22.97
2023-01-18T23:50:08.214Z,27.50
2023-01-18T23:52:52.849Z,25.97
2023-01-18T23:55:19.172Z,27.67
2023-01-18T23:57:45.541Z,20.33
